sensor_id;sensor_type;location;lat;lon;timestamp;pressure;altitude;pressure_sealevel;temperature;humidity
51289;BME280;37372;52.294;5.152;2024-01-25T00:01:05;102806.81;;;6.65;70.86
51289;BME280;37372;52.294;5.152;2024-01-25T00:03:30;102813.84;;;6.66;70.65
51289;BME280;37372;52.294;5.152;2024-01-25T00:05:58;102816.50;;;6.68;70.63
51289;BME280;37372;52.294;5.152;2024-01-25T00:08:30;102820.72;;;6.64;70.88
51289;BME280;37372;52.294;5.152;2024-01-25T00:10:57;102817.25;;;6.65;70.88
51289;BME280;37372;52.294;5.152;2024-01-25T00:13:35;102812.69;;;6.61;70.89
51289;BME280;37372;52.294;5.152;2024-01-25T00:16:08;102810.94;;;6.60;71.03
51289;BME280;37372;52.294;5.152;2024-01-25T00:18:33;102807.00;;;6.52;71.38
51289;BME280;37372;52.294;5.152;2024-01-25T00:20:59;102812.47;;;6.56;70.94
51289;BME280;37372;52.294;5.152;2024-01-25T00:23:27;102812.63;;;6.59;70.73
51289;BME280;37372;52.294;5.152;2024-01-25T00:25:54;102817.63;;;6.55;71.16
51289;BME280;37372;52.294;5.152;2024-01-25T00:28:25;102823.72;;;6.55;71.03
51289;BME280;37372;52.294;5.152;2024-01-25T00:30:52;102818.75;;;6.60;71.00
51289;BME280;37372;52.294;5.152;2024-01-25T00:33:17;102809.22;;;6.60;70.84
51289;BME280;37372;52.294;5.152;2024-01-25T00:35:56;102807.34;;;6.58;70.83
51289;BME280;37372;52.294;5.152;2024-01-25T00:38:27;102808.81;;;6.53;70.95
51289;BME280;37372;52.294;5.152;2024-01-25T00:40:54;102812.00;;;6.47;70.92
51289;BME280;37372;52.294;5.152;2024-01-25T00:43:24;102814.34;;;6.42;71.10
51289;BME280;37372;52.294;5.152;2024-01-25T00:45:51;102822.78;;;6.37;71.74
51289;BME280;37372;52.294;5.152;2024-01-25T00:48:40;102831.84;;;6.27;72.06
51289;BME280;37372;52.294;5.152;2024-01-25T00:51:14;102839.81;;;6.30;71.81
51289;BME280;37372;52.294;5.152;2024-01-25T00:53:50;102840.56;;;6.27;72.19
51289;BME280;37372;52.294;5.152;2024-01-25T00:56:33;102833.53;;;6.26;72.24
51289;BME280;37372;52.294;5.152;2024-01-25T00:58:59;102832.47;;;6.23;72.40
51289;BME280;37372;52.294;5.152;2024-01-25T01:01:27;102831.31;;;6.18;72.25
51289;BME280;37372;52.294;5.152;2024-01-25T01:03:55;102832.63;;;6.09;72.82
51289;BME280;37372;52.294;5.152;2024-01-25T01:06:25;102844.97;;;5.97;73.12
51289;BME280;37372;52.294;5.152;2024-01-25T01:08:53;102833.31;;;5.90;73.65
51289;BME280;37372;52.294;5.152;2024-01-25T01:11:19;102840.97;;;5.87;73.75
51289;BME280;37372;52.294;5.152;2024-01-25T01:13:45;102841.44;;;5.80;74.49
51289;BME280;37372;52.294;5.152;2024-01-25T01:16:10;102843.97;;;5.78;74.14
51289;BME280;37372;52.294;5.152;2024-01-25T01:18:36;102841.81;;;5.86;74.29
51289;BME280;37372;52.294;5.152;2024-01-25T01:21:02;102845.06;;;5.82;74.54
51289;BME280;37372;52.294;5.152;2024-01-25T01:23:27;102846.28;;;5.89;74.50
51289;BME280;37372;52.294;5.152;2024-01-25T01:25:54;102847.31;;;5.92;74.22
51289;BME280;37372;52.294;5.152;2024-01-25T01:28:19;102854.09;;;5.89;73.97
51289;BME280;37372;52.294;5.152;2024-01-25T01:30:46;102852.03;;;5.83;74.23
51289;BME280;37372;52.294;5.152;2024-01-25T01:33:14;102856.31;;;5.66;74.74
51289;BME280;37372;52.294;5.152;2024-01-25T01:35:40;102850.19;;;5.49;75.16
51289;BME280;37372;52.294;5.152;2024-01-25T01:38:07;102835.72;;;5.39;75.67
51289;BME280;37372;52.294;5.152;2024-01-25T01:40:35;102847.56;;;5.49;75.61
51289;BME280;37372;52.294;5.152;2024-01-25T01:43:05;102851.44;;;5.56;75.66
51289;BME280;37372;52.294;5.152;2024-01-25T01:45:30;102848.19;;;5.60;75.71
51289;BME280;37372;52.294;5.152;2024-01-25T01:47:58;102860.00;;;5.70;75.09
51289;BME280;37372;52.294;5.152;2024-01-25T01:50:25;102860.06;;;5.71;75.46
51289;BME280;37372;52.294;5.152;2024-01-25T01:52:56;102862.22;;;5.78;75.19
51289;BME280;37372;52.294;5.152;2024-01-25T01:55:24;102853.69;;;5.81;74.89
51289;BME280;37372;52.294;5.152;2024-01-25T01:57:50;102853.19;;;5.72;75.13
51289;BME280;37372;52.294;5.152;2024-01-25T02:00:16;102859.91;;;5.68;75.20
51289;BME280;37372;52.294;5.152;2024-01-25T02:02:49;102867.72;;;5.68;75.27
51289;BME280;37372;52.294;5.152;2024-01-25T02:05:19;102870.28;;;5.52;75.50
51289;BME280;37372;52.294;5.152;2024-01-25T02:07:44;102863.22;;;5.49;75.96
51289;BME280;37372;52.294;5.152;2024-01-25T02:10:11;102865.25;;;5.55;75.76
51289;BME280;37372;52.294;5.152;2024-01-25T02:13:40;102873.88;;;5.54;75.62
51289;BME280;37372;52.294;5.152;2024-01-25T02:16:09;102877.13;;;5.49;75.84
51289;BME280;37372;52.294;5.152;2024-01-25T02:18:41;102882.84;;;5.59;75.78
51289;BME280;37372;52.294;5.152;2024-01-25T02:21:11;102880.69;;;5.52;75.68
51289;BME280;37372;52.294;5.152;2024-01-25T02:23:42;102886.81;;;5.52;75.50
51289;BME280;37372;52.294;5.152;2024-01-25T02:26:08;102887.38;;;5.46;75.83
51289;BME280;37372;52.294;5.152;2024-01-25T02:28:34;102888.19;;;5.45;75.88
51289;BME280;37372;52.294;5.152;2024-01-25T02:31:05;102899.41;;;5.44;76.04
51289;BME280;37372;52.294;5.152;2024-01-25T02:33:30;102903.94;;;5.32;76.41
51289;BME280;37372;52.294;5.152;2024-01-25T02:36:21;102902.38;;;5.36;76.43
51289;BME280;37372;52.294;5.152;2024-01-25T02:38:49;102899.06;;;5.23;76.84
51289;BME280;37372;52.294;5.152;2024-01-25T02:41:14;102903.03;;;5.16;76.72
51289;BME280;37372;52.294;5.152;2024-01-25T02:43:39;102907.50;;;5.19;77.10
51289;BME280;37372;52.294;5.152;2024-01-25T02:46:20;102910.91;;;5.18;77.32
51289;BME280;37372;52.294;5.152;2024-01-25T02:48:45;102916.84;;;5.15;77.10
51289;BME280;37372;52.294;5.152;2024-01-25T02:51:19;102905.53;;;5.15;77.53
51289;BME280;37372;52.294;5.152;2024-01-25T02:53:45;102911.63;;;5.15;77.28
51289;BME280;37372;52.294;5.152;2024-01-25T02:56:10;102912.97;;;5.09;77.54
51289;BME280;37372;52.294;5.152;2024-01-25T02:58:36;102903.38;;;5.08;77.60
51289;BME280;37372;52.294;5.152;2024-01-25T03:01:04;102904.28;;;5.23;77.49
51289;BME280;37372;52.294;5.152;2024-01-25T03:03:34;102901.59;;;5.22;77.63
51289;BME280;37372;52.294;5.152;2024-01-25T03:05:59;102902.22;;;5.18;77.35
51289;BME280;37372;52.294;5.152;2024-01-25T03:08:30;102907.34;;;5.16;77.01
51289;BME280;37372;52.294;5.152;2024-01-25T03:11:05;102914.50;;;5.05;77.30
51289;BME280;37372;52.294;5.152;2024-01-25T03:16:33;102914.13;;;4.84;78.35
51289;BME280;37372;52.294;5.152;2024-01-25T03:18:59;102915.38;;;4.76;78.65
51289;BME280;37372;52.294;5.152;2024-01-25T03:21:24;102918.97;;;4.78;78.65
51289;BME280;37372;52.294;5.152;2024-01-25T03:23:51;102920.56;;;4.76;78.62
51289;BME280;37372;52.294;5.152;2024-01-25T03:26:20;102915.19;;;4.73;79.14
51289;BME280;37372;52.294;5.152;2024-01-25T03:28:55;102914.97;;;4.70;79.02
51289;BME280;37372;52.294;5.152;2024-01-25T03:31:40;102921.59;;;4.64;78.87
51289;BME280;37372;52.294;5.152;2024-01-25T03:34:07;102925.53;;;4.58;79.40
51289;BME280;37372;52.294;5.152;2024-01-25T03:36:33;102925.19;;;4.52;79.51
51289;BME280;37372;52.294;5.152;2024-01-25T03:38:58;102924.78;;;4.45;79.29
51289;BME280;37372;52.294;5.152;2024-01-25T03:41:24;102919.13;;;4.38;79.58
51289;BME280;37372;52.294;5.152;2024-01-25T03:43:50;102909.31;;;4.33;80.18
51289;BME280;37372;52.294;5.152;2024-01-25T03:46:19;102911.53;;;4.27;80.24
51289;BME280;37372;52.294;5.152;2024-01-25T03:48:50;102907.66;;;4.21;80.15
51289;BME280;37372;52.294;5.152;2024-01-25T03:51:36;102910.47;;;4.10;79.97
51289;BME280;37372;52.294;5.152;2024-01-25T03:54:06;102910.19;;;4.06;80.87
51289;BME280;37372;52.294;5.152;2024-01-25T03:56:33;102911.69;;;4.02;80.45
51289;BME280;37372;52.294;5.152;2024-01-25T04:02:10;102924.50;;;3.99;81.02
51289;BME280;37372;52.294;5.152;2024-01-25T04:04:36;102919.00;;;3.94;80.56
51289;BME280;37372;52.294;5.152;2024-01-25T04:07:03;102911.09;;;3.93;81.21
51289;BME280;37372;52.294;5.152;2024-01-25T04:09:30;102913.63;;;3.91;80.66
51289;BME280;37372;52.294;5.152;2024-01-25T04:11:57;102911.63;;;3.87;81.20
51289;BME280;37372;52.294;5.152;2024-01-25T04:14:26;102908.72;;;3.82;81.12
51289;BME280;37372;52.294;5.152;2024-01-25T04:16:55;102905.84;;;3.78;81.23
51289;BME280;37372;52.294;5.152;2024-01-25T04:19:20;102911.56;;;3.72;80.94
51289;BME280;37372;52.294;5.152;2024-01-25T04:21:46;102912.13;;;3.68;81.13
51289;BME280;37372;52.294;5.152;2024-01-25T04:24:11;102913.03;;;3.69;81.39
51289;BME280;37372;52.294;5.152;2024-01-25T04:26:39;102918.94;;;3.66;81.47
51289;BME280;37372;52.294;5.152;2024-01-25T04:29:08;102919.63;;;3.63;81.48
51289;BME280;37372;52.294;5.152;2024-01-25T04:31:45;102927.03;;;3.57;81.41
51289;BME280;37372;52.294;5.152;2024-01-25T04:34:28;102929.34;;;3.53;81.39
51289;BME280;37372;52.294;5.152;2024-01-25T04:36:55;102926.13;;;3.43;80.76
51289;BME280;37372;52.294;5.152;2024-01-25T04:39:20;102923.81;;;3.35;80.44
51289;BME280;37372;52.294;5.152;2024-01-25T04:41:48;102926.81;;;3.27;80.91
51289;BME280;37372;52.294;5.152;2024-01-25T04:44:13;102926.19;;;3.18;80.76
51289;BME280;37372;52.294;5.152;2024-01-25T04:46:38;102926.19;;;3.18;80.65
51289;BME280;37372;52.294;5.152;2024-01-25T04:49:04;102931.25;;;3.16;81.27
51289;BME280;37372;52.294;5.152;2024-01-25T04:51:30;102934.53;;;3.14;80.90
51289;BME280;37372;52.294;5.152;2024-01-25T04:53:55;102931.84;;;3.12;81.24
51289;BME280;37372;52.294;5.152;2024-01-25T04:56:21;102925.09;;;3.14;81.73
51289;BME280;37372;52.294;5.152;2024-01-25T04:58:46;102922.69;;;3.17;81.64
51289;BME280;37372;52.294;5.152;2024-01-25T05:04:21;102936.28;;;3.27;82.34
51289;BME280;37372;52.294;5.152;2024-01-25T05:06:47;102934.38;;;3.24;82.05
51289;BME280;37372;52.294;5.152;2024-01-25T05:12:55;102925.88;;;3.27;82.10
51289;BME280;37372;52.294;5.152;2024-01-25T05:15:20;102936.19;;;3.25;82.18
51289;BME280;37372;52.294;5.152;2024-01-25T05:17:46;102936.88;;;3.23;82.18
51289;BME280;37372;52.294;5.152;2024-01-25T05:20:11;102932.38;;;3.20;81.98
51289;BME280;37372;52.294;5.152;2024-01-25T05:22:40;102942.66;;;3.19;82.32
51289;BME280;37372;52.294;5.152;2024-01-25T05:25:08;102935.66;;;3.17;82.23
51289;BME280;37372;52.294;5.152;2024-01-25T05:27:35;102936.88;;;3.23;82.02
51289;BME280;37372;52.294;5.152;2024-01-25T05:30:00;102933.84;;;3.16;82.43
51289;BME280;37372;52.294;5.152;2024-01-25T05:32:30;102940.66;;;3.14;82.51
51289;BME280;37372;52.294;5.152;2024-01-25T05:34:56;102953.22;;;3.08;82.11
51289;BME280;37372;52.294;5.152;2024-01-25T05:37:23;102953.81;;;3.04;82.34
51289;BME280;37372;52.294;5.152;2024-01-25T05:40:04;102954.97;;;2.96;82.38
51289;BME280;37372;52.294;5.152;2024-01-25T05:42:32;102952.97;;;2.92;82.14
51289;BME280;37372;52.294;5.152;2024-01-25T05:45:01;102951.25;;;2.92;83.04
51289;BME280;37372;52.294;5.152;2024-01-25T05:47:30;102938.63;;;2.97;82.63
51289;BME280;37372;52.294;5.152;2024-01-25T05:49:58;102947.50;;;3.00;82.75
51289;BME280;37372;52.294;5.152;2024-01-25T05:52:24;102962.06;;;2.98;82.71
51289;BME280;37372;52.294;5.152;2024-01-25T05:54:50;102968.75;;;2.95;82.67
51289;BME280;37372;52.294;5.152;2024-01-25T05:57:16;102969.34;;;2.91;82.52
51289;BME280;37372;52.294;5.152;2024-01-25T05:59:45;102965.56;;;2.99;83.06
51289;BME280;37372;52.294;5.152;2024-01-25T06:02:16;102961.38;;;3.01;82.25
51289;BME280;37372;52.294;5.152;2024-01-25T06:04:43;102959.78;;;3.03;82.42
51289;BME280;37372;52.294;5.152;2024-01-25T06:07:09;102958.47;;;2.96;83.19
51289;BME280;37372;52.294;5.152;2024-01-25T06:09:35;102955.78;;;2.95;82.90
51289;BME280;37372;52.294;5.152;2024-01-25T06:12:06;102966.06;;;2.93;83.34
51289;BME280;37372;52.294;5.152;2024-01-25T06:14:43;102967.63;;;2.91;82.95
51289;BME280;37372;52.294;5.152;2024-01-25T06:17:21;102965.03;;;2.91;82.88
51289;BME280;37372;52.294;5.152;2024-01-25T06:19:48;102964.94;;;2.90;82.69
51289;BME280;37372;52.294;5.152;2024-01-25T06:22:13;102959.63;;;2.88;82.88
51289;BME280;37372;52.294;5.152;2024-01-25T06:24:55;102966.63;;;2.89;83.00
51289;BME280;37372;52.294;5.152;2024-01-25T06:30:43;102970.59;;;2.84;82.96
51289;BME280;37372;52.294;5.152;2024-01-25T06:33:08;102975.69;;;2.82;83.29
51289;BME280;37372;52.294;5.152;2024-01-25T06:35:34;102979.38;;;2.86;82.99
51289;BME280;37372;52.294;5.152;2024-01-25T06:37:59;102969.91;;;2.87;83.41
51289;BME280;37372;52.294;5.152;2024-01-25T06:40:25;102974.97;;;2.97;82.78
51289;BME280;37372;52.294;5.152;2024-01-25T06:42:50;102978.63;;;3.00;83.35
51289;BME280;37372;52.294;5.152;2024-01-25T06:45:16;102984.53;;;2.98;83.12
51289;BME280;37372;52.294;5.152;2024-01-25T06:47:43;102982.75;;;2.97;83.26
51289;BME280;37372;52.294;5.152;2024-01-25T06:50:08;102987.94;;;2.97;83.90
51289;BME280;37372;52.294;5.152;2024-01-25T06:52:35;102988.13;;;3.00;83.03
51289;BME280;37372;52.294;5.152;2024-01-25T06:55:04;102986.13;;;2.96;83.17
51289;BME280;37372;52.294;5.152;2024-01-25T06:57:35;102980.84;;;2.94;83.79
51289;BME280;37372;52.294;5.152;2024-01-25T07:00:03;102976.44;;;2.93;83.09
51289;BME280;37372;52.294;5.152;2024-01-25T07:02:29;102978.00;;;2.91;83.43
51289;BME280;37372;52.294;5.152;2024-01-25T07:04:55;102973.50;;;2.89;83.65
51289;BME280;37372;52.294;5.152;2024-01-25T07:07:23;102975.22;;;2.88;83.32
51289;BME280;37372;52.294;5.152;2024-01-25T07:09:49;102978.59;;;2.87;83.37
51289;BME280;37372;52.294;5.152;2024-01-25T07:12:25;102977.72;;;2.87;83.61
51289;BME280;37372;52.294;5.152;2024-01-25T07:14:54;102977.91;;;2.90;83.27
51289;BME280;37372;52.294;5.152;2024-01-25T07:17:26;102978.69;;;2.89;83.47
51289;BME280;37372;52.294;5.152;2024-01-25T07:19:52;102980.31;;;2.87;83.54
51289;BME280;37372;52.294;5.152;2024-01-25T07:22:18;102980.69;;;2.93;84.13
51289;BME280;37372;52.294;5.152;2024-01-25T07:24:44;102983.44;;;2.94;84.01
51289;BME280;37372;52.294;5.152;2024-01-25T07:27:10;102989.50;;;2.95;84.04
51289;BME280;37372;52.294;5.152;2024-01-25T07:29:36;102990.53;;;2.97;83.91
51289;BME280;37372;52.294;5.152;2024-01-25T07:32:08;102984.53;;;2.98;83.75
51289;BME280;37372;52.294;5.152;2024-01-25T07:34:38;102988.91;;;2.99;83.43
51289;BME280;37372;52.294;5.152;2024-01-25T07:37:08;102977.75;;;3.00;84.11
51289;BME280;37372;52.294;5.152;2024-01-25T07:39:40;102984.94;;;3.04;83.73
51289;BME280;37372;52.294;5.152;2024-01-25T07:42:06;102985.75;;;3.03;84.00
51289;BME280;37372;52.294;5.152;2024-01-25T07:44:35;102978.97;;;3.05;83.60
51289;BME280;37372;52.294;5.152;2024-01-25T07:47:05;102978.28;;;3.08;83.85
51289;BME280;37372;52.294;5.152;2024-01-25T07:49:30;102980.88;;;3.08;83.52
51289;BME280;37372;52.294;5.152;2024-01-25T07:52:00;102992.25;;;3.10;84.20
51289;BME280;37372;52.294;5.152;2024-01-25T07:54:52;102989.75;;;3.11;83.82
51289;BME280;37372;52.294;5.152;2024-01-25T07:57:23;102982.88;;;3.12;84.46
51289;BME280;37372;52.294;5.152;2024-01-25T08:00:20;102988.97;;;3.12;83.86
51289;BME280;37372;52.294;5.152;2024-01-25T08:02:47;102977.19;;;3.17;84.00
51289;BME280;37372;52.294;5.152;2024-01-25T08:05:13;102986.78;;;3.19;84.50
51289;BME280;37372;52.294;5.152;2024-01-25T08:07:41;102985.50;;;3.25;84.23
51289;BME280;37372;52.294;5.152;2024-01-25T08:10:08;102990.91;;;3.28;83.97
51289;BME280;37372;52.294;5.152;2024-01-25T08:12:40;102986.53;;;3.27;83.69
51289;BME280;37372;52.294;5.152;2024-01-25T08:15:10;102982.81;;;3.24;83.44
51289;BME280;37372;52.294;5.152;2024-01-25T08:17:40;102982.81;;;3.24;83.91
51289;BME280;37372;52.294;5.152;2024-01-25T08:20:06;102986.41;;;3.26;83.72
51289;BME280;37372;52.294;5.152;2024-01-25T08:22:34;102987.41;;;3.28;84.23
51289;BME280;37372;52.294;5.152;2024-01-25T08:24:59;102985.72;;;3.28;83.85
51289;BME280;37372;52.294;5.152;2024-01-25T08:27:31;102989.53;;;3.33;83.74
51289;BME280;37372;52.294;5.152;2024-01-25T08:30:26;102977.75;;;3.39;83.25
51289;BME280;37372;52.294;5.152;2024-01-25T08:33:04;102979.28;;;3.48;83.43
51289;BME280;37372;52.294;5.152;2024-01-25T08:35:30;102997.66;;;3.52;83.14
51289;BME280;37372;52.294;5.152;2024-01-25T08:37:57;103001.47;;;3.57;83.32
51289;BME280;37372;52.294;5.152;2024-01-25T08:40:43;103008.25;;;3.68;83.35
51289;BME280;37372;52.294;5.152;2024-01-25T08:43:08;103003.88;;;3.67;82.84
51289;BME280;37372;52.294;5.152;2024-01-25T08:45:34;103008.56;;;3.73;83.19
51289;BME280;37372;52.294;5.152;2024-01-25T08:47:59;103018.47;;;3.78;83.22
51289;BME280;37372;52.294;5.152;2024-01-25T08:50:25;103015.59;;;3.87;82.67
51289;BME280;37372;52.294;5.152;2024-01-25T08:53:10;102995.22;;;3.93;82.67
51289;BME280;37372;52.294;5.152;2024-01-25T08:55:42;102989.41;;;3.97;82.07
51289;BME280;37372;52.294;5.152;2024-01-25T08:58:14;102994.19;;;4.05;82.41
51289;BME280;37372;52.294;5.152;2024-01-25T09:00:49;102984.59;;;4.17;82.21
51289;BME280;37372;52.294;5.152;2024-01-25T09:12:06;103010.16;;;4.38;82.02
51289;BME280;37372;52.294;5.152;2024-01-25T09:14:36;103009.94;;;4.48;82.13
51289;BME280;37372;52.294;5.152;2024-01-25T09:17:23;103006.19;;;4.58;81.24
51289;BME280;37372;52.294;5.152;2024-01-25T09:23:35;102996.00;;;4.89;80.75
51289;BME280;37372;52.294;5.152;2024-01-25T09:36:44;102984.53;;;5.00;80.54
51289;BME280;37372;52.294;5.152;2024-01-25T09:39:20;102988.41;;;5.07;80.35
51289;BME280;37372;52.294;5.152;2024-01-25T09:42:06;102987.97;;;5.14;80.62
51289;BME280;37372;52.294;5.152;2024-01-25T09:44:55;102980.44;;;5.19;80.19
51289;BME280;37372;52.294;5.152;2024-01-25T09:47:26;102991.03;;;5.22;80.04
51289;BME280;37372;52.294;5.152;2024-01-25T09:59:21;102968.41;;;5.36;79.62
51289;BME280;37372;52.294;5.152;2024-01-25T10:02:04;102964.38;;;5.41;79.20
51289;BME280;37372;52.294;5.152;2024-01-25T10:04:36;102963.75;;;5.45;79.42
51289;BME280;37372;52.294;5.152;2024-01-25T10:10:27;102988.53;;;5.54;79.08
51289;BME280;37372;52.294;5.152;2024-01-25T10:16:18;102981.41;;;5.66;78.73
51289;BME280;37372;52.294;5.152;2024-01-25T10:18:57;102974.13;;;5.75;78.84
51289;BME280;37372;52.294;5.152;2024-01-25T10:21:44;102982.41;;;5.83;78.64
51289;BME280;37372;52.294;5.152;2024-01-25T10:24:51;102967.75;;;5.85;77.89
51289;BME280;37372;52.294;5.152;2024-01-25T10:27:32;102974.66;;;5.84;77.65
51289;BME280;37372;52.294;5.152;2024-01-25T10:30:08;102977.53;;;5.89;77.64
51289;BME280;37372;52.294;5.152;2024-01-25T10:32:55;102976.97;;;5.95;77.92
51289;BME280;37372;52.294;5.152;2024-01-25T10:35:41;102965.13;;;6.00;77.14
51289;BME280;37372;52.294;5.152;2024-01-25T10:41:56;102961.25;;;6.08;76.46
51289;BME280;37372;52.294;5.152;2024-01-25T10:47:35;102972.47;;;6.22;77.07
51289;BME280;37372;52.294;5.152;2024-01-25T10:50:16;102978.34;;;6.35;76.21
51289;BME280;37372;52.294;5.152;2024-01-25T10:52:46;102981.94;;;6.37;75.68
51289;BME280;37372;52.294;5.152;2024-01-25T10:55:11;102973.97;;;6.33;75.79
51289;BME280;37372;52.294;5.152;2024-01-25T10:57:43;102959.19;;;6.34;75.72
51289;BME280;37372;52.294;5.152;2024-01-25T11:00:17;102964.34;;;6.32;75.92
51289;BME280;37372;52.294;5.152;2024-01-25T11:02:44;102952.28;;;6.51;75.37
51289;BME280;37372;52.294;5.152;2024-01-25T11:05:16;102944.13;;;6.45;75.43
51289;BME280;37372;52.294;5.152;2024-01-25T11:07:55;102933.59;;;6.43;75.24
51289;BME280;37372;52.294;5.152;2024-01-25T11:10:27;102922.50;;;6.47;75.32
51289;BME280;37372;52.294;5.152;2024-01-25T11:13:05;102906.69;;;6.44;75.27
51289;BME280;37372;52.294;5.152;2024-01-25T11:15:42;102926.41;;;6.56;74.59
51289;BME280;37372;52.294;5.152;2024-01-25T11:18:08;102941.78;;;6.49;74.86
51289;BME280;37372;52.294;5.152;2024-01-25T11:21:11;102944.38;;;6.49;75.08
51289;BME280;37372;52.294;5.152;2024-01-25T11:27:03;102917.84;;;6.58;75.17
51289;BME280;37372;52.294;5.152;2024-01-25T11:40:07;102893.69;;;6.79;74.65
51289;BME280;37372;52.294;5.152;2024-01-25T11:42:34;102885.13;;;6.81;75.04
51289;BME280;37372;52.294;5.152;2024-01-25T11:44:59;102889.84;;;6.89;74.65
51289;BME280;37372;52.294;5.152;2024-01-25T11:47:25;102874.34;;;6.92;74.18
51289;BME280;37372;52.294;5.152;2024-01-25T11:50:10;102860.38;;;6.91;74.47
51289;BME280;37372;52.294;5.152;2024-01-25T11:52:37;102863.53;;;7.02;74.15
51289;BME280;37372;52.294;5.152;2024-01-25T11:55:08;102851.97;;;6.97;73.98
51289;BME280;37372;52.294;5.152;2024-01-25T11:57:40;102851.97;;;6.97;73.71
51289;BME280;37372;52.294;5.152;2024-01-25T12:00:08;102854.94;;;7.05;73.62
51289;BME280;37372;52.294;5.152;2024-01-25T12:02:36;102851.50;;;7.06;73.36
51289;BME280;37372;52.294;5.152;2024-01-25T12:05:10;102846.56;;;6.94;73.43
51289;BME280;37372;52.294;5.152;2024-01-25T12:07:35;102837.47;;;6.86;73.83
51289;BME280;37372;52.294;5.152;2024-01-25T12:10:07;102839.25;;;6.87;74.09
51289;BME280;37372;52.294;5.152;2024-01-25T12:12:39;102847.63;;;6.97;73.60
51289;BME280;37372;52.294;5.152;2024-01-25T12:15:05;102844.59;;;7.06;73.86
51289;BME280;37372;52.294;5.152;2024-01-25T12:17:37;102848.50;;;7.32;72.71
51289;BME280;37372;52.294;5.152;2024-01-25T12:20:24;102839.53;;;7.27;72.72
51289;BME280;37372;52.294;5.152;2024-01-25T12:23:30;102824.88;;;7.31;72.55
51289;BME280;37372;52.294;5.152;2024-01-25T12:26:00;102822.94;;;7.27;71.94
51289;BME280;37372;52.294;5.152;2024-01-25T12:28:39;102819.44;;;7.44;71.49
51289;BME280;37372;52.294;5.152;2024-01-25T12:31:05;102816.91;;;7.28;72.25
51289;BME280;37372;52.294;5.152;2024-01-25T12:37:08;102806.22;;;7.41;72.07
51289;BME280;37372;52.294;5.152;2024-01-25T12:39:33;102797.84;;;7.48;72.30
51289;BME280;37372;52.294;5.152;2024-01-25T12:42:25;102794.91;;;7.60;71.35
51289;BME280;37372;52.294;5.152;2024-01-25T12:45:07;102788.66;;;7.57;71.07
51289;BME280;37372;52.294;5.152;2024-01-25T12:47:37;102788.94;;;7.63;71.02
51289;BME280;37372;52.294;5.152;2024-01-25T12:50:03;102779.16;;;7.59;71.22
51289;BME280;37372;52.294;5.152;2024-01-25T12:52:46;102778.31;;;7.60;71.77
51289;BME280;37372;52.294;5.152;2024-01-25T12:55:27;102774.44;;;7.70;71.27
51289;BME280;37372;52.294;5.152;2024-01-25T12:58:27;102776.97;;;7.68;70.68
51289;BME280;37372;52.294;5.152;2024-01-25T13:01:14;102779.78;;;7.73;71.00
51289;BME280;37372;52.294;5.152;2024-01-25T13:03:43;102772.06;;;7.76;70.44
51289;BME280;37372;52.294;5.152;2024-01-25T13:06:13;102767.19;;;7.83;69.85
51289;BME280;37372;52.294;5.152;2024-01-25T13:08:44;102765.69;;;7.89;69.06
51289;BME280;37372;52.294;5.152;2024-01-25T13:14:18;102750.69;;;7.85;69.47
51289;BME280;37372;52.294;5.152;2024-01-25T13:17:15;102737.75;;;7.88;69.23
51289;BME280;37372;52.294;5.152;2024-01-25T13:19:43;102733.91;;;7.99;68.73
51289;BME280;37372;52.294;5.152;2024-01-25T13:24:59;102723.56;;;8.02;68.96
51289;BME280;37372;52.294;5.152;2024-01-25T13:28:03;102718.88;;;8.14;68.28
51289;BME280;37372;52.294;5.152;2024-01-25T13:30:32;102711.44;;;8.04;68.61
51289;BME280;37372;52.294;5.152;2024-01-25T13:33:01;102700.69;;;7.98;68.93
51289;BME280;37372;52.294;5.152;2024-01-25T13:35:34;102694.78;;;8.02;68.31
51289;BME280;37372;52.294;5.152;2024-01-25T13:38:05;102696.63;;;8.05;68.43
51289;BME280;37372;52.294;5.152;2024-01-25T13:40:44;102696.84;;;8.09;68.24
51289;BME280;37372;52.294;5.152;2024-01-25T13:43:13;102692.16;;;8.02;68.16
51289;BME280;37372;52.294;5.152;2024-01-25T13:45:40;102694.06;;;8.06;68.23
51289;BME280;37372;52.294;5.152;2024-01-25T13:48:12;102687.13;;;8.07;69.06
51289;BME280;37372;52.294;5.152;2024-01-25T13:50:42;102691.69;;;7.91;69.21
51289;BME280;37372;52.294;5.152;2024-01-25T13:53:10;102687.38;;;7.92;69.48
51289;BME280;37372;52.294;5.152;2024-01-25T13:55:38;102677.16;;;7.98;68.69
51289;BME280;37372;52.294;5.152;2024-01-25T13:58:04;102676.53;;;8.04;68.68
51289;BME280;37372;52.294;5.152;2024-01-25T14:03:41;102678.78;;;7.75;69.99
51289;BME280;37372;52.294;5.152;2024-01-25T14:06:06;102682.50;;;7.80;69.92
51289;BME280;37372;52.294;5.152;2024-01-25T14:08:43;102685.03;;;7.78;70.54
51289;BME280;37372;52.294;5.152;2024-01-25T14:11:09;102676.63;;;7.86;70.15
51289;BME280;37372;52.294;5.152;2024-01-25T14:14:06;102675.88;;;7.69;71.15
51289;BME280;37372;52.294;5.152;2024-01-25T14:16:42;102676.81;;;7.71;71.17
51289;BME280;37372;52.294;5.152;2024-01-25T14:19:07;102668.22;;;7.73;70.90
51289;BME280;37372;52.294;5.152;2024-01-25T14:31:55;102652.69;;;7.57;72.73
51289;BME280;37372;52.294;5.152;2024-01-25T14:34:20;102654.50;;;7.58;72.83
51289;BME280;37372;52.294;5.152;2024-01-25T14:36:47;102655.84;;;7.49;73.57
51289;BME280;37372;52.294;5.152;2024-01-25T14:39:13;102652.28;;;7.47;73.45
51289;BME280;37372;52.294;5.152;2024-01-25T14:42:11;102642.47;;;7.42;73.91
51289;BME280;37372;52.294;5.152;2024-01-25T14:44:45;102639.97;;;7.45;73.39
51289;BME280;37372;52.294;5.152;2024-01-25T14:47:14;102641.06;;;7.50;73.35
51289;BME280;37372;52.294;5.152;2024-01-25T15:00:28;102651.81;;;7.37;78.09
51289;BME280;37372;52.294;5.152;2024-01-25T15:03:15;102639.81;;;7.22;79.31
51289;BME280;37372;52.294;5.152;2024-01-25T15:06:13;102643.88;;;7.15;79.29
51289;BME280;37372;52.294;5.152;2024-01-25T15:09:06;102633.06;;;7.08;80.36
51289;BME280;37372;52.294;5.152;2024-01-25T15:11:46;102632.78;;;7.02;81.04